createdAt,value
2023-05-05T00:00:16.002Z,103089.88
2023-05-05T00:01:17.981Z,103074.31
2023-05-05T00:02:19.977Z,103088.16
2023-05-05T00:03:22.437Z,103089.03
2023-05-05T00:04:24.365Z,103087.31
2023-05-05T00:05:26.198Z,103086.44
2023-05-05T00:06:31.578Z,103088.28
2023-05-05T00:07:33.427Z,103088.28
2023-05-05T00:08:35.237Z,103088.34
2023-05-05T00:09:37.074Z,103090.19
2023-05-05T00:10:38.840Z,103089.31
2023-05-05T00:11:40.618Z,103089.44
2023-05-05T00:12:42.572Z,103078.03
2023-05-05T00:13:44.355Z,103088.47
2023-05-05T00:14:46.153Z,103079.88
2023-05-05T00:15:50.038Z,103075.53
2023-05-05T00:16:52.495Z,103087.72
2023-05-05T00:17:54.377Z,103091.25
2023-05-05T00:18:56.578Z,103098.44
2023-05-05T00:19:59.756Z,103093.06
2023-05-05T00:21:01.794Z,103093.06
2023-05-05T00:22:03.588Z,103094.88
2023-05-05T00:23:05.440Z,103097.66
2023-05-05T00:24:07.344Z,103100.34
2023-05-05T00:25:09.555Z,103097.75
2023-05-05T00:26:11.376Z,103078.63
2023-05-05T00:27:13.503Z,103095.19
2023-05-05T00:28:15.367Z,103097.88
2023-05-05T00:29:17.148Z,103103.22
2023-05-05T00:30:19.120Z,103098.81
2023-05-05T00:31:21.383Z,103100.63
2023-05-05T00:32:23.271Z,103097.94
2023-05-05T00:33:25.814Z,103098.06
2023-05-05T00:34:27.599Z,103102.53
2023-05-05T00:35:29.474Z,103100.81
2023-05-05T00:36:31.311Z,103107.03
2023-05-05T00:37:33.123Z,103107.03
2023-05-05T00:38:35.130Z,103099.09
2023-05-05T00:39:36.955Z,103105.31
2023-05-05T00:40:38.736Z,103115.19
2023-05-05T00:41:40.924Z,103113.34
2023-05-05T00:42:47.332Z,103108.09
2023-05-05T00:43:49.191Z,103104.47
2023-05-05T00:44:51.093Z,103108.94
2023-05-05T00:46:02.414Z,103109.81
2023-05-05T00:47:04.956Z,103111.53
2023-05-05T00:48:07.355Z,103112.50
2023-05-05T00:49:10.114Z,103112.56
2023-05-05T00:50:21.764Z,103116.22
2023-05-05T00:51:25.666Z,103100.53
2023-05-05T00:52:27.470Z,103104.66
2023-05-05T00:53:29.384Z,103113.53
2023-05-05T00:54:31.258Z,103099.75
2023-05-05T00:55:34.854Z,103108.47
2023-05-05T00:56:37.524Z,103087.63
2023-05-05T00:57:39.753Z,103108.28
2023-05-05T00:58:44.660Z,103109.31
2023-05-05T00:59:46.984Z,103105.69
2023-05-05T01:00:48.929Z,103109.31
2023-05-05T01:01:50.951Z,103107.59
2023-05-05T01:02:52.952Z,103112.13
2023-05-05T01:03:55.630Z,103111.25
2023-05-05T01:04:58.498Z,103100.72
2023-05-05T01:06:10.433Z,103108.56
2023-05-05T01:07:39.840Z,103103.00
2023-05-05T01:08:47.266Z,103108.94
2023-05-05T01:10:15.669Z,103111.63
2023-05-05T01:11:32.463Z,103116.03
2023-05-05T01:12:46.571Z,103112.56
2023-05-05T01:13:58.910Z,103119.84
2023-05-05T01:15:21.977Z,103116.13
2023-05-05T01:16:33.241Z,103116.22
2023-05-05T01:18:16.389Z,103109.69
2023-05-05T01:19:33.373Z,103119.50
2023-05-05T01:20:58.845Z,103112.56
2023-05-05T01:22:04.774Z,103112.75
2023-05-05T01:23:09.990Z,103115.75
2023-05-05T01:25:03.890Z,103114.50
2023-05-05T01:26:24.629Z,103111.81
2023-05-05T01:27:38.644Z,103119.00
2023-05-05T01:29:15.217Z,103116.41
2023-05-05T01:30:57.839Z,103117.94
2023-05-05T01:32:12.947Z,103107.72
2023-05-05T01:33:20.380Z,103121.09
2023-05-05T01:34:27.927Z,103108.38
2023-05-05T01:35:41.853Z,103121.50
2023-05-05T01:36:53.238Z,103126.94
2023-05-05T01:38:19.391Z,103120.41
2023-05-05T01:39:26.472Z,103120.63
2023-05-05T01:40:32.012Z,103126.16
2023-05-05T01:41:41.218Z,103119.06
2023-05-05T01:42:44.576Z,103121.84
2023-05-05T01:43:50.435Z,103089.09
2023-05-05T01:44:54.182Z,103129.09
2023-05-05T01:45:57.179Z,103119.47
2023-05-05T01:47:01.355Z,103124.81
2023-05-05T01:48:06.650Z,103124.06
2023-05-05T01:49:11.685Z,103128.53
2023-05-05T01:50:16.137Z,103125.84
2023-05-05T01:51:19.301Z,103120.59
2023-05-05T01:52:22.471Z,103131.22
2023-05-05T01:53:25.787Z,103118.28
2023-05-05T01:54:28.953Z,103125.09
2023-05-05T01:55:32.438Z,103133.13
2023-05-05T01:56:36.188Z,103125.19
2023-05-05T01:57:41.480Z,103123.34
2023-05-05T01:58:46.110Z,103126.91
2023-05-05T01:59:51.758Z,103112.94
2023-05-05T02:00:55.437Z,103126.91
2023-05-05T02:02:00.269Z,103097.16
2023-05-05T02:03:04.958Z,103121.94
2023-05-05T02:04:09.765Z,103133.22
2023-05-05T02:05:13.209Z,103124.22
2023-05-05T02:06:16.559Z,103127.00
2023-05-05T02:07:19.859Z,103116.75
2023-05-05T02:08:22.848Z,103130.63
2023-05-05T02:09:27.391Z,103130.63
2023-05-05T02:10:30.428Z,103134.19
2023-05-05T02:11:32.731Z,103126.22
2023-05-05T02:12:37.422Z,103130.75
2023-05-05T02:13:42.824Z,103125.38
2023-05-05T02:14:51.297Z,103128.81
2023-05-05T02:15:54.921Z,103127.09
2023-05-05T02:16:58.263Z,103137.81
2023-05-05T02:18:02.104Z,103123.66
2023-05-05T02:19:05.193Z,103125.38
2023-05-05T02:20:09.617Z,103119.59
2023-05-05T02:21:11.825Z,103134.38
2023-05-05T02:22:16.555Z,103110.00
2023-05-05T02:23:18.506Z,103115.19
2023-05-05T02:24:20.602Z,103120.56
2023-05-05T02:25:25.635Z,103131.88
2023-05-05T02:26:30.323Z,103123.06
2023-05-05T02:27:35.062Z,103129.19
2023-05-05T02:28:48.208Z,103128.13
2023-05-05T02:29:58.684Z,103130.81
2023-05-05T02:31:01.393Z,103115.19
2023-05-05T02:32:16.280Z,103125.56
2023-05-05T02:33:22.075Z,103132.66
2023-05-05T02:34:27.558Z,103127.28
2023-05-05T02:35:42.934Z,103130.03
2023-05-05T02:36:52.740Z,103122.13
2023-05-05T02:38:02.840Z,103130.91
2023-05-05T02:39:14.746Z,103127.28
2023-05-05T02:40:24.531Z,103125.47
2023-05-05T02:41:29.145Z,103116.91
2023-05-05T02:42:36.573Z,103128.44
2023-05-05T02:43:42.634Z,103132.84
2023-05-05T02:44:46.008Z,103132.03
2023-05-05T02:45:48.322Z,103131.09
2023-05-05T02:46:51.699Z,103134.72
2023-05-05T02:47:53.653Z,103123.50
2023-05-05T02:48:59.731Z,103125.41
2023-05-05T02:50:02.870Z,103134.88
2023-05-05T02:51:06.782Z,103119.16
2023-05-05T02:52:11.286Z,103134.81
2023-05-05T02:53:14.984Z,103135.75
2023-05-05T02:54:17.719Z,103138.50
2023-05-05T02:55:19.760Z,103136.78
2023-05-05T02:56:46.237Z,103136.47
2023-05-05T02:57:53.794Z,103132.03
2023-05-05T02:59:14.531Z,103138.19
2023-05-05T03:00:31.697Z,103126.59
2023-05-05T03:01:57.353Z,103134.72
2023-05-05T03:03:16.462Z,103130.91
2023-05-05T03:04:25.844Z,103140.88
2023-05-05T03:05:42.714Z,103136.47
2023-05-05T03:06:50.153Z,103141.81
2023-05-05T03:08:10.129Z,103138.34
2023-05-05T03:09:25.901Z,103132.03
2023-05-05T03:10:32.205Z,103137.38
2023-05-05T03:12:15.625Z,103137.50
2023-05-05T03:13:28.523Z,103138.00
2023-05-05T03:14:41.044Z,103117.44
2023-05-05T03:15:48.465Z,103142.84
2023-05-05T03:16:55.391Z,103134.97
2023-05-05T03:17:59.560Z,103140.41
2023-05-05T03:19:04.716Z,103139.63
2023-05-05T03:20:08.848Z,103147.66
2023-05-05T03:21:15.030Z,103108.41
2023-05-05T03:22:17.998Z,103118.88
2023-05-05T03:23:22.967Z,103134.56
2023-05-05T03:24:30.630Z,103139.75
2023-05-05T03:25:49.215Z,103139.56
2023-05-05T03:27:03.201Z,103145.56
2023-05-05T03:28:09.741Z,103142.22
2023-05-05T03:29:12.764Z,103145.94
2023-05-05T03:30:15.351Z,103148.72
2023-05-05T03:31:23.461Z,103149.56
2023-05-05T03:32:30.965Z,103145.09
2023-05-05T03:33:32.778Z,103146.06
2023-05-05T03:34:37.401Z,103141.13
2023-05-05T03:35:40.885Z,103147.00
2023-05-05T03:36:45.671Z,103142.59
2023-05-05T03:37:50.100Z,103147.84
2023-05-05T03:38:53.424Z,103151.66
2023-05-05T03:39:56.179Z,103148.81
2023-05-05T03:41:01.597Z,103148.91
2023-05-05T03:42:03.550Z,103152.38
2023-05-05T03:43:08.098Z,103149.56
2023-05-05T03:44:10.563Z,103130.63
2023-05-05T03:45:13.096Z,103147.84
2023-05-05T03:46:16.312Z,103157.59
2023-05-05T03:47:18.781Z,103151.28
2023-05-05T03:48:20.731Z,103148.63
2023-05-05T03:49:24.389Z,103162.00
2023-05-05T03:50:27.140Z,103147.66
2023-05-05T03:51:30.133Z,103152.06
2023-05-05T03:52:33.900Z,103153.03
2023-05-05T03:53:36.298Z,103159.16
2023-05-05T03:54:42.591Z,103163.56
2023-05-05T03:55:44.392Z,103163.56
2023-05-05T03:56:46.699Z,103161.75
2023-05-05T03:57:48.509Z,103163.56
2023-05-05T03:58:50.330Z,103162.72
2023-05-05T03:59:52.347Z,103167.19
2023-05-05T04:00:54.157Z,103168.91
2023-05-05T04:01:56.870Z,103169.78
2023-05-05T04:02:59.011Z,103153.31
2023-05-05T04:04:01.220Z,103165.28
2023-05-05T04:05:03.112Z,103166.22
2023-05-05T04:06:06.025Z,103167.00
2023-05-05T04:07:08.484Z,103161.66
2023-05-05T04:08:10.516Z,103164.31
2023-05-05T04:09:12.414Z,103168.84
2023-05-05T04:10:14.312Z,103167.88
2023-05-05T04:11:16.241Z,103171.44
2023-05-05T04:12:18.035Z,103161.94
2023-05-05T04:13:20.592Z,103161.59
2023-05-05T04:14:23.051Z,103175.84
2023-05-05T04:15:25.334Z,103168.69
2023-05-05T04:16:27.413Z,103168.59
2023-05-05T04:17:29.745Z,103173.97
2023-05-05T04:18:32.089Z,103177.41
2023-05-05T04:19:34.251Z,103172.06
2023-05-05T04:20:38.001Z,103175.59
2023-05-05T04:21:39.860Z,103176.47
2023-05-05T04:22:41.830Z,103174.72
2023-05-05T04:23:44.316Z,103179.13
2023-05-05T04:24:47.315Z,103172.81
2023-05-05T04:25:49.344Z,103169.97
2023-05-05T04:26:52.162Z,103169.09
2023-05-05T04:27:54.808Z,103176.09
2023-05-05T04:28:57.293Z,103177.88
2023-05-05T04:29:59.143Z,103172.47
2023-05-05T04:31:02.595Z,103173.22
2023-05-05T04:32:06.579Z,103180.31
2023-05-05T04:33:08.393Z,103170.63
2023-05-05T04:34:10.648Z,103186.50
2023-05-05T04:35:12.802Z,103182.03
2023-05-05T04:36:14.700Z,103169.97
2023-05-05T04:37:16.501Z,103189.00
2023-05-05T04:38:20.725Z,103182.88
2023-05-05T04:39:22.981Z,103183.56
2023-05-05T04:40:26.354Z,103187.09
2023-05-05T04:41:30.178Z,103181.66
2023-05-05T04:42:32.830Z,103192.38
2023-05-05T04:43:35.088Z,103185.19
2023-05-05T04:44:37.751Z,103191.50
2023-05-05T04:45:39.605Z,103187.88
2023-05-05T04:46:41.986Z,103188.75
2023-05-05T04:47:44.042Z,103181.84
2023-05-05T04:48:46.214Z,103189.63
2023-05-05T04:49:48.260Z,103187.78
2023-05-05T04:50:50.207Z,103184.25
2023-05-05T04:51:52.607Z,103191.34
2023-05-05T04:52:54.457Z,103185.88
2023-05-05T04:53:56.425Z,103186.84
2023-05-05T04:54:58.270Z,103185.03
2023-05-05T04:56:01.378Z,103187.78
2023-05-05T04:57:04.108Z,103193.91
2023-05-05T04:58:06.123Z,103186.06
2023-05-05T04:59:08.009Z,103161.81
2023-05-05T05:00:10.720Z,103192.00
2023-05-05T05:01:12.898Z,103189.31
2023-05-05T05:02:14.829Z,103192.97
2023-05-05T05:03:16.979Z,103189.31
2023-05-05T05:04:18.878Z,103194.69
2023-05-05T05:05:21.657Z,103195.66
2023-05-05T05:06:23.797Z,103199.09
2023-05-05T05:07:26.199Z,103198.13
2023-05-05T05:08:28.530Z,103201.69
2023-05-05T05:09:30.460Z,103198.91
2023-05-05T05:10:32.676Z,103203.31
2023-05-05T05:11:34.617Z,103198.72
2023-05-05T05:12:37.130Z,103193.28
2023-05-05T05:13:39.003Z,103203.81
2023-05-05T05:14:40.818Z,103193.94
2023-05-05T05:15:42.873Z,103199.03
2023-05-05T05:16:45.045Z,103199.72
2023-05-05T05:17:46.962Z,103206.63
2023-05-05T05:18:48.894Z,103202.03
2023-05-05T05:19:50.716Z,103208.91
2023-05-05T05:20:52.701Z,103189.47
2023-05-05T05:21:54.679Z,103191.00
2023-05-05T05:22:57.508Z,103202.91
2023-05-05T05:23:59.745Z,103198.19
2023-05-05T05:25:02.093Z,103205.09
2023-05-05T05:26:05.284Z,103206.63
2023-05-05T05:27:10.117Z,103206.44
2023-05-05T05:28:14.713Z,103201.59
2023-05-05T05:29:22.123Z,103208.50
2023-05-05T05:30:24.096Z,103210.13
2023-05-05T05:31:26.630Z,103204.56
2023-05-05T05:32:29.255Z,103206.19
2023-05-05T05:33:31.278Z,103203.22
2023-05-05T05:34:34.374Z,103203.03
2023-05-05T05:35:36.925Z,103200.41
2023-05-05T05:36:39.174Z,103215.84
2023-05-05T05:37:41.136Z,103211.25
2023-05-05T05:38:43.041Z,103203.19
2023-05-05T05:39:51.132Z,103210.00
2023-05-05T05:40:54.558Z,103211.44
2023-05-05T05:41:57.365Z,103213.06
2023-05-05T05:42:59.906Z,103213.06
2023-05-05T05:44:02.602Z,103214.56
2023-05-05T05:45:05.432Z,103219.75
2023-05-05T05:46:09.166Z,103204.91
2023-05-05T05:47:13.122Z,103223.75
2023-05-05T05:48:15.014Z,103215.63
2023-05-05T05:49:17.709Z,103219.94
2023-05-05T05:50:20.045Z,103212.81
2023-05-05T05:51:22.037Z,103209.97
2023-05-05T05:52:24.375Z,103221.34
2023-05-05T05:53:26.377Z,103214.03
2023-05-05T05:54:29.308Z,103211.47
2023-05-05T05:55:31.382Z,103215.69
2023-05-05T05:56:33.708Z,103206.94
2023-05-05T05:57:35.573Z,103209.16
2023-05-05T05:58:39.133Z,103222.47
2023-05-05T05:59:41.080Z,103199.66
2023-05-05T06:00:43.544Z,103218.59
2023-05-05T06:01:46.541Z,103211.44
2023-05-05T06:02:48.531Z,103212.28
2023-05-05T06:03:53.845Z,103211.16
2023-05-05T06:04:56.414Z,103214.81
2023-05-05T06:05:59.267Z,103187.00
2023-05-05T06:07:01.370Z,103209.25
2023-05-05T06:08:03.269Z,103206.56
2023-05-05T06:09:06.769Z,103206.81
2023-05-05T06:10:25.609Z,103210.00
2023-05-05T06:11:34.983Z,103207.75
2023-05-05T06:12:36.936Z,103206.91
2023-05-05T06:13:38.756Z,103201.06
2023-05-05T06:14:41.348Z,103204.31
2023-05-05T06:15:43.526Z,103209.69
2023-05-05T06:16:47.481Z,103214.97
2023-05-05T06:17:54.087Z,103203.25
2023-05-05T06:18:57.292Z,103208.63
2023-05-05T06:19:59.603Z,103206.03
2023-05-05T06:21:02.623Z,103210.34
2023-05-05T06:22:05.946Z,103215.72
2023-05-05T06:23:08.416Z,103210.34
2023-05-05T06:24:13.624Z,103201.75
2023-05-05T06:25:16.683Z,103217.44
2023-05-05T06:26:18.661Z,103212.91
2023-05-05T06:27:20.527Z,103212.91
2023-05-05T06:28:22.466Z,103214.75
2023-05-05T06:29:24.221Z,103213.78
2023-05-05T06:30:28.886Z,103215.59
2023-05-05T06:31:30.834Z,103220.88
2023-05-05T06:32:32.650Z,103220.88
2023-05-05T06:33:34.493Z,103213.78
2023-05-05T06:34:36.282Z,103211.94
2023-05-05T06:35:38.274Z,103220.00
2023-05-05T06:36:40.158Z,103219.91
2023-05-05T06:37:42.050Z,103214.56
2023-05-05T06:38:43.809Z,103209.38
2023-05-05T06:39:45.709Z,103217.25
2023-05-05T06:40:49.663Z,103212.81
2023-05-05T06:41:51.425Z,103212.72
2023-05-05T06:42:53.203Z,103215.31
2023-05-05T06:44:01.130Z,103212.53
2023-05-05T06:45:03.060Z,103206.38
2023-05-05T06:46:05.044Z,103210.81
2023-05-05T06:47:07.059Z,103213.50
2023-05-05T06:48:09.091Z,103208.97
2023-05-05T06:49:11.058Z,103211.88
2023-05-05T06:50:12.913Z,103213.50
2023-05-05T06:51:15.637Z,103213.50
2023-05-05T06:52:17.473Z,103216.06
2023-05-05T06:53:19.364Z,103217.91
2023-05-05T06:54:21.123Z,103220.59
2023-05-05T06:55:23.644Z,103218.75
2023-05-05T06:56:25.545Z,103212.53
2023-05-05T06:57:27.317Z,103213.38
2023-05-05T06:58:29.191Z,103213.38
2023-05-05T06:59:30.962Z,103215.09
2023-05-05T07:00:32.830Z,103217.03
2023-05-05T07:01:34.630Z,103212.53
2023-05-05T07:02:36.515Z,103219.63
2023-05-05T07:03:38.411Z,103214.25
2023-05-05T07:04:41.477Z,103223.16
2023-05-05T07:05:43.507Z,103219.50
2023-05-05T07:06:45.300Z,103213.28
2023-05-05T07:07:52.652Z,103215.09
2023-05-05T07:08:54.519Z,103213.38
2023-05-05T07:09:56.348Z,103220.38
2023-05-05T07:10:58.161Z,103221.22
2023-05-05T07:11:59.930Z,103223.06
2023-05-05T07:13:01.854Z,103222.94
2023-05-05T07:14:03.773Z,103222.00
2023-05-05T07:15:19.221Z,103221.22
2023-05-05T07:16:28.011Z,103218.25
2023-05-05T07:17:29.856Z,103220.06
2023-05-05T07:18:31.712Z,103218.34
2023-05-05T07:19:33.632Z,103223.72
2023-05-05T07:20:35.473Z,103231.00
2023-05-05T07:21:37.242Z,103221.16
2023-05-05T07:22:39.206Z,103222.00
2023-05-05T07:23:41.067Z,103222.94
2023-05-05T07:24:42.907Z,103227.38
2023-05-05T07:25:44.700Z,103220.25
2023-05-05T07:26:46.664Z,103225.63
2023-05-05T07:27:48.460Z,103226.53
2023-05-05T07:28:52.061Z,103226.53
2023-05-05T07:29:53.870Z,103229.09
2023-05-05T07:30:55.689Z,103222.00
2023-05-05T07:31:57.536Z,103219.31
2023-05-05T07:32:59.395Z,103224.59
2023-05-05T07:34:01.336Z,103223.72
2023-05-05T07:35:03.667Z,103225.44
2023-05-05T07:36:05.860Z,103216.81
2023-05-05T07:37:07.969Z,103229.00
2023-05-05T07:38:10.898Z,103226.31
2023-05-05T07:39:15.060Z,103221.78
2023-05-05T07:40:16.868Z,103221.78
2023-05-05T07:41:19.329Z,103217.38
2023-05-05T07:42:21.372Z,103219.09
2023-05-05T07:43:23.407Z,103219.97
2023-05-05T07:44:25.705Z,103225.34
2023-05-05T07:45:28.915Z,103221.78
2023-05-05T07:46:30.784Z,103220.94
2023-05-05T07:47:32.667Z,103219.09
2023-05-05T07:48:34.718Z,103212.88
2023-05-05T07:49:36.662Z,103213.72
2023-05-05T07:50:39.647Z,103210.19
2023-05-05T07:51:42.099Z,103217.28
2023-05-05T07:52:48.319Z,103207.78
2023-05-05T07:53:55.983Z,103216.19
2023-05-05T07:54:57.794Z,103221.56
2023-05-05T07:55:59.568Z,103216.31
2023-05-05T07:57:02.154Z,103198.47
2023-05-05T07:58:03.957Z,103211.78
2023-05-05T07:59:05.934Z,103217.16
2023-05-05T08:00:09.559Z,103212.75
2023-05-05T08:01:14.311Z,103213.50
2023-05-05T08:02:16.159Z,103203.72
2023-05-05T08:03:20.222Z,103204.59
2023-05-05T08:04:22.163Z,103209.31
2023-05-05T08:05:23.979Z,103211.78
2023-05-05T08:06:27.757Z,103204.91
2023-05-05T08:07:29.532Z,103202.88
2023-05-05T08:08:31.336Z,103203.72
2023-05-05T08:09:33.219Z,103216.31
2023-05-05T08:10:35.091Z,103211.78
2023-05-05T08:11:36.949Z,103196.09
2023-05-05T08:12:39.558Z,103210.06
2023-05-05T08:13:43.056Z,103195.66
2023-05-05T08:14:44.844Z,103214.47
2023-05-05T08:15:46.935Z,103204.69
2023-05-05T08:16:48.812Z,103212.75
2023-05-05T08:17:53.364Z,103209.31
2023-05-05T08:18:55.348Z,103214.47
2023-05-05T08:19:57.188Z,103211.91
2023-05-05T08:20:58.950Z,103212.75
2023-05-05T08:22:01.651Z,103203.31
2023-05-05T08:23:03.550Z,103213.63
2023-05-05T08:24:05.627Z,103205.03
2023-05-05T08:25:08.312Z,103212.75
2023-05-05T08:26:10.340Z,103217.16
2023-05-05T08:27:13.961Z,103213.72
2023-05-05T08:28:15.785Z,103214.47
2023-05-05T08:29:17.667Z,103213.63
2023-05-05T08:30:21.474Z,103212.75
2023-05-05T08:31:23.279Z,103213.63
2023-05-05T08:32:25.535Z,103216.31
2023-05-05T08:33:28.549Z,103215.44
2023-05-05T08:34:30.548Z,103211.03
2023-05-05T08:35:32.331Z,103211.03
2023-05-05T08:36:34.124Z,103211.03
2023-05-05T08:37:36.196Z,103219.00
2023-05-05T08:38:38.032Z,103212.75
2023-05-05T08:39:39.860Z,103214.59
2023-05-05T08:40:41.838Z,103212.75
2023-05-05T08:41:43.708Z,103210.19
2023-05-05T08:42:46.494Z,103218.13
2023-05-05T08:43:50.549Z,103212.75
2023-05-05T08:44:53.058Z,103210.06
2023-05-05T08:45:56.361Z,103214.59
2023-05-05T08:47:00.326Z,103219.00
2023-05-05T08:48:05.037Z,103211.03
2023-05-05T08:49:13.971Z,103216.41
2023-05-05T08:50:19.231Z,103226.09
2023-05-05T08:51:22.024Z,103219.00
2023-05-05T08:52:26.620Z,103218.13
2023-05-05T08:53:56.092Z,103218.13
2023-05-05T08:55:06.615Z,103212.34
2023-05-05T08:56:09.104Z,103215.03
2023-05-05T08:57:12.092Z,103213.50
2023-05-05T08:58:15.541Z,103218.03
2023-05-05T08:59:18.912Z,103221.69
2023-05-05T09:00:21.331Z,103221.78
2023-05-05T09:01:23.574Z,103215.56
2023-05-05T09:02:29.926Z,103217.38
2023-05-05T09:03:32.396Z,103222.66
2023-05-05T09:04:34.981Z,103220.94
2023-05-05T09:05:37.237Z,103221.78
2023-05-05T09:06:39.172Z,103221.78
2023-05-05T09:07:44.307Z,103220.06
2023-05-05T09:08:47.105Z,103221.78
2023-05-05T09:09:49.929Z,103206.00
2023-05-05T09:10:51.946Z,103212.75
2023-05-05T09:11:56.009Z,103214.69
2023-05-05T09:12:58.163Z,103219.09
2023-05-05T09:14:01.815Z,103219.09
2023-05-05T09:15:03.979Z,103211.03
2023-05-05T09:16:06.200Z,103220.81
2023-05-05T09:17:22.745Z,103215.34
2023-05-05T09:18:25.001Z,103217.84
2023-05-05T09:19:26.786Z,103217.91
2023-05-05T09:20:37.028Z,103208.06
2023-05-05T09:21:50.450Z,103206.13
2023-05-05T09:22:53.258Z,103208.69
2023-05-05T09:24:13.376Z,103213.22
2023-05-05T09:25:16.926Z,103168.88
2023-05-05T09:26:18.706Z,103205.44
2023-05-05T09:27:23.670Z,103207.16
2023-05-05T09:28:26.071Z,103209.78
2023-05-05T09:29:27.859Z,103220.41
2023-05-05T09:30:29.793Z,103216.09
2023-05-05T09:31:33.294Z,103218.78
2023-05-05T09:32:46.037Z,103213.22
2023-05-05T09:33:48.226Z,103218.47
2023-05-05T09:35:01.080Z,103215.78
2023-05-05T09:36:02.970Z,103198.69
2023-05-05T09:37:06.223Z,103207.72
2023-05-05T09:38:12.403Z,103202.75
2023-05-05T09:39:17.366Z,103205.03
2023-05-05T09:40:20.709Z,103210.41
2023-05-05T09:41:39.651Z,103203.13
2023-05-05T09:42:41.696Z,103202.91
2023-05-05T09:43:52.066Z,103184.91
2023-05-05T09:44:54.637Z,103203.88
2023-05-05T09:46:08.459Z,103207.41
2023-05-05T09:47:26.153Z,103201.19
2023-05-05T09:48:32.298Z,103204.53
2023-05-05T09:49:34.307Z,103203.75
2023-05-05T09:50:45.223Z,103205.59
2023-05-05T09:51:48.145Z,103200.44
2023-05-05T09:53:00.729Z,103210.03
2023-05-05T09:54:02.637Z,103201.97
2023-05-05T09:55:04.702Z,103205.69
2023-05-05T09:56:07.071Z,103189.44
2023-05-05T09:57:09.463Z,103198.59
2023-05-05T09:58:20.325Z,103205.81
2023-05-05T09:59:22.859Z,103201.19
2023-05-05T10:00:38.687Z,103207.31
2023-05-05T10:01:43.388Z,103201.06
2023-05-05T10:02:45.492Z,103206.44
2023-05-05T10:03:54.071Z,103206.66
2023-05-05T10:05:07.225Z,103203.69
2023-05-05T10:06:09.105Z,103209.06
2023-05-05T10:07:23.099Z,103207.22
2023-05-05T10:08:30.743Z,103195.63
2023-05-05T10:09:32.761Z,103200.03
2023-05-05T10:10:35.271Z,103209.06
2023-05-05T10:11:37.141Z,103197.53
2023-05-05T10:12:39.719Z,103203.88
2023-05-05T10:13:44.589Z,103208.28
2023-05-05T10:14:46.594Z,103207.41
2023-05-05T10:15:53.970Z,103202.03
2023-05-05T10:16:56.034Z,103196.59
2023-05-05T10:18:07.372Z,103199.34
2023-05-05T10:19:14.311Z,103204.66
2023-05-05T10:20:16.523Z,103202.78
2023-05-05T10:21:21.665Z,103200.22
2023-05-05T10:22:25.051Z,103170.19
2023-05-05T10:23:48.974Z,103209.69
2023-05-05T10:24:58.528Z,103201.75
2023-05-05T10:26:07.072Z,103199.06
2023-05-05T10:27:20.228Z,103200.78
2023-05-05T10:28:31.500Z,103196.38
2023-05-05T10:30:08.478Z,103199.06
2023-05-05T10:31:25.194Z,103196.91
2023-05-05T10:33:03.404Z,103198.84
2023-05-05T10:34:12.322Z,103202.91
2023-05-05T10:35:22.024Z,103197.00
2023-05-05T10:36:25.614Z,103194.53
2023-05-05T10:37:28.935Z,103194.66
2023-05-05T10:38:31.815Z,103189.47
2023-05-05T10:39:36.713Z,103180.31
2023-05-05T10:40:44.296Z,103183.34
2023-05-05T10:41:47.428Z,103191.28
2023-05-05T10:42:50.960Z,103188.16
2023-05-05T10:43:57.710Z,103183.44
2023-05-05T10:44:59.600Z,103186.03
2023-05-05T10:46:01.909Z,103172.56
2023-05-05T10:47:04.604Z,103179.88
2023-05-05T10:48:12.898Z,103179.88
2023-05-05T10:49:39.703Z,103184.88
2023-05-05T10:50:56.842Z,103184.75
2023-05-05T10:52:19.992Z,103176.47
2023-05-05T10:53:41.411Z,103190.78
2023-05-05T10:55:07.152Z,103179.28
2023-05-05T10:56:25.395Z,103184.53
2023-05-05T10:57:29.518Z,103176.59
2023-05-05T10:58:46.933Z,103183.13
2023-05-05T10:59:53.385Z,103185.63
2023-05-05T11:00:55.194Z,103181.28
2023-05-05T11:01:57.406Z,103176.25
2023-05-05T11:03:17.835Z,103174.09
2023-05-05T11:04:24.832Z,103176.03
2023-05-05T11:05:27.178Z,103176.03
2023-05-05T11:06:29.593Z,103161.16
2023-05-05T11:07:31.632Z,103171.81
2023-05-05T11:08:38.488Z,103174.72
2023-05-05T11:09:56.094Z,103156.13
2023-05-05T11:10:58.315Z,103173.34
2023-05-05T11:12:07.249Z,103178.94
2023-05-05T11:13:09.035Z,103188.72
2023-05-05T11:14:22.375Z,103176.13
2023-05-05T11:15:24.193Z,103179.69
2023-05-05T11:16:50.580Z,103174.09
2023-05-05T11:17:54.300Z,103179.47
2023-05-05T11:18:56.243Z,103169.78
2023-05-05T11:19:58.030Z,103176.25
2023-05-05T11:20:59.779Z,103178.06
2023-05-05T11:22:02.365Z,103169.13
2023-05-05T11:23:04.635Z,103174.50
2023-05-05T11:24:31.288Z,103170.66
2023-05-05T11:25:42.199Z,103176.88
2023-05-05T11:26:52.866Z,103177.75
2023-05-05T11:28:07.081Z,103174.94
2023-05-05T11:29:08.901Z,103175.06
2023-05-05T11:30:11.756Z,103167.22
2023-05-05T11:31:18.386Z,103170.97
2023-05-05T11:32:20.371Z,103170.00
2023-05-05T11:33:37.828Z,103162.91
2023-05-05T11:34:50.056Z,103168.94
2023-05-05T11:35:55.965Z,103171.72
2023-05-05T11:37:02.330Z,103169.91
2023-05-05T11:38:07.856Z,103169.13
2023-05-05T11:39:23.303Z,103132.03
2023-05-05T11:40:31.623Z,103165.50
2023-05-05T11:41:38.902Z,103168.06
2023-05-05T11:42:40.858Z,103164.63
2023-05-05T11:43:42.958Z,103164.63
2023-05-05T11:44:44.893Z,103162.03
2023-05-05T11:45:46.717Z,103165.69
2023-05-05T11:46:51.536Z,103163.97
2023-05-05T11:48:28.616Z,103158.19
2023-05-05T11:49:37.652Z,103160.66
2023-05-05T11:50:39.739Z,103161.63
2023-05-05T11:51:41.693Z,103163.56
2023-05-05T11:52:43.602Z,103159.34
2023-05-05T11:53:49.730Z,103142.88
2023-05-05T11:54:51.694Z,103145.38
2023-05-05T11:56:19.721Z,103156.34
2023-05-05T11:57:29.173Z,103155.28
2023-05-05T11:58:31.124Z,103147.75
2023-05-05T11:59:33.784Z,103158.38
2023-05-05T12:00:36.575Z,103154.75
2023-05-05T12:01:42.318Z,103154.84
2023-05-05T12:02:44.334Z,103158.38
2023-05-05T12:03:46.478Z,103158.38
2023-05-05T12:04:48.950Z,103162.03
2023-05-05T12:05:54.916Z,103153.97
2023-05-05T12:06:57.885Z,103151.28
2023-05-05T12:07:59.925Z,103159.25
2023-05-05T12:09:02.327Z,103153.88
2023-05-05T12:10:04.480Z,103153.00
2023-05-05T12:11:11.255Z,103120.31
2023-05-05T12:12:13.724Z,103149.56
2023-05-05T12:13:21.715Z,103151.19
2023-05-05T12:14:24.624Z,103151.09
2023-05-05T12:15:32.846Z,103126.75
2023-05-05T12:16:34.739Z,103142.06
2023-05-05T12:17:46.121Z,103147.53
2023-05-05T12:18:48.081Z,103142.91
2023-05-05T12:19:52.796Z,103148.41
2023-05-05T12:20:54.722Z,103144.75
2023-05-05T12:21:57.220Z,103148.41
2023-05-05T12:23:04.011Z,103138.63
2023-05-05T12:24:06.442Z,103143.78